sensor_id;sensor_type;location;lat;lon;timestamp;temperature;humidity
17571;DHT22;8903;52.220;20.978;2024-03-06T00:01:52;6.40;99.90
17571;DHT22;8903;52.220;20.978;2024-03-06T00:04:18;6.40;99.90
17571;DHT22;8903;52.220;20.978;2024-03-06T00:06:44;6.40;99.90
17571;DHT22;8903;52.220;20.978;2024-03-06T00:09:09;6.40;99.90
17571;DHT22;8903;52.220;20.978;2024-03-06T00:11:35;6.40;99.90
17571;DHT22;8903;52.220;20.978;2024-03-06T00:14:04;6.40;99.90
17571;DHT22;8903;52.220;20.978;2024-03-06T00:16:32;6.40;99.90
17571;DHT22;8903;52.220;20.978;2024-03-06T00:18:59;6.50;99.90
17571;DHT22;8903;52.220;20.978;2024-03-06T00:21:25;6.50;99.90
17571;DHT22;8903;52.220;20.978;2024-03-06T00:23:51;6.50;99.90
17571;DHT22;8903;52.220;20.978;2024-03-06T00:26:16;6.50;99.90
17571;DHT22;8903;52.220;20.978;2024-03-06T00:28:42;6.50;99.90
17571;DHT22;8903;52.220;20.978;2024-03-06T00:31:08;6.50;99.90
17571;DHT22;8903;52.220;20.978;2024-03-06T00:33:34;6.50;99.90
17571;DHT22;8903;52.220;20.978;2024-03-06T00:35:59;6.50;99.90
17571;DHT22;8903;52.220;20.978;2024-03-06T00:38:25;6.60;99.90
17571;DHT22;8903;52.220;20.978;2024-03-06T00:40:51;6.50;99.90
17571;DHT22;8903;52.220;20.978;2024-03-06T00:43:16;6.50;99.90
17571;DHT22;8903;52.220;20.978;2024-03-06T00:45:42;6.50;99.90
17571;DHT22;8903;52.220;20.978;2024-03-06T00:48:08;6.50;99.90
17571;DHT22;8903;52.220;20.978;2024-03-06T00:50:34;6.50;99.90
17571;DHT22;8903;52.220;20.978;2024-03-06T00:52:59;6.60;99.90
17571;DHT22;8903;52.220;20.978;2024-03-06T00:55:25;6.60;99.90
17571;DHT22;8903;52.220;20.978;2024-03-06T00:57:51;6.60;99.90
17571;DHT22;8903;52.220;20.978;2024-03-06T01:00:17;6.50;99.90
17571;DHT22;8903;52.220;20.978;2024-03-06T01:02:43;6.50;99.90
17571;DHT22;8903;52.220;20.978;2024-03-06T01:05:09;6.60;99.90
17571;DHT22;8903;52.220;20.978;2024-03-06T01:07:37;6.60;99.90
17571;DHT22;8903;52.220;20.978;2024-03-06T01:10:03;6.60;99.90
17571;DHT22;8903;52.220;20.978;2024-03-06T01:12:29;6.60;99.90
17571;DHT22;8903;52.220;20.978;2024-03-06T01:14:56;6.60;99.90
17571;DHT22;8903;52.220;20.978;2024-03-06T01:17:21;6.70;99.90
17571;DHT22;8903;52.220;20.978;2024-03-06T01:19:48;6.70;99.90
17571;DHT22;8903;52.220;20.978;2024-03-06T01:22:13;6.70;99.90
17571;DHT22;8903;52.220;20.978;2024-03-06T01:24:39;6.70;99.90
17571;DHT22;8903;52.220;20.978;2024-03-06T01:27:05;6.80;99.90
17571;DHT22;8903;52.220;20.978;2024-03-06T01:29:31;6.80;99.90
17571;DHT22;8903;52.220;20.978;2024-03-06T01:31:58;6.80;99.90
17571;DHT22;8903;52.220;20.978;2024-03-06T01:34:24;6.70;99.90
17571;DHT22;8903;52.220;20.978;2024-03-06T01:36:51;6.80;99.90
17571;DHT22;8903;52.220;20.978;2024-03-06T01:39:17;6.80;99.90
17571;DHT22;8903;52.220;20.978;2024-03-06T01:41:46;6.80;99.90
17571;DHT22;8903;52.220;20.978;2024-03-06T01:44:16;6.80;99.90
17571;DHT22;8903;52.220;20.978;2024-03-06T01:46:46;6.90;99.90
17571;DHT22;8903;52.220;20.978;2024-03-06T01:49:15;6.90;99.90
17571;DHT22;8903;52.220;20.978;2024-03-06T01:51:44;6.90;99.90
17571;DHT22;8903;52.220;20.978;2024-03-06T01:54:13;6.90;99.90
17571;DHT22;8903;52.220;20.978;2024-03-06T01:56:44;6.90;99.90
17571;DHT22;8903;52.220;20.978;2024-03-06T01:59:19;6.90;99.90
17571;DHT22;8903;52.220;20.978;2024-03-06T02:01:46;6.90;99.90
17571;DHT22;8903;52.220;20.978;2024-03-06T02:04:12;7.00;99.90
17571;DHT22;8903;52.220;20.978;2024-03-06T02:06:39;6.90;99.90
17571;DHT22;8903;52.220;20.978;2024-03-06T02:09:05;7.00;99.90
17571;DHT22;8903;52.220;20.978;2024-03-06T02:11:33;7.00;99.90
17571;DHT22;8903;52.220;20.978;2024-03-06T02:13:59;7.00;99.90
17571;DHT22;8903;52.220;20.978;2024-03-06T02:16:25;7.00;99.90
17571;DHT22;8903;52.220;20.978;2024-03-06T02:18:55;7.00;99.90
17571;DHT22;8903;52.220;20.978;2024-03-06T02:21:23;7.00;99.90
17571;DHT22;8903;52.220;20.978;2024-03-06T02:23:49;7.00;99.90
17571;DHT22;8903;52.220;20.978;2024-03-06T02:26:17;7.00;99.90
17571;DHT22;8903;52.220;20.978;2024-03-06T02:28:54;7.00;99.90
17571;DHT22;8903;52.220;20.978;2024-03-06T02:31:20;7.00;99.90
17571;DHT22;8903;52.220;20.978;2024-03-06T02:33:47;7.00;99.90
17571;DHT22;8903;52.220;20.978;2024-03-06T02:36:19;7.00;99.90
17571;DHT22;8903;52.220;20.978;2024-03-06T02:38:45;7.00;99.90
17571;DHT22;8903;52.220;20.978;2024-03-06T02:41:12;7.00;99.90
17571;DHT22;8903;52.220;20.978;2024-03-06T02:43:39;7.00;99.90
17571;DHT22;8903;52.220;20.978;2024-03-06T02:46:05;7.00;99.90
17571;DHT22;8903;52.220;20.978;2024-03-06T02:48:31;6.90;99.90
17571;DHT22;8903;52.220;20.978;2024-03-06T02:50:57;7.00;99.90
17571;DHT22;8903;52.220;20.978;2024-03-06T02:53:23;6.90;99.90
17571;DHT22;8903;52.220;20.978;2024-03-06T02:55:49;6.90;99.90
17571;DHT22;8903;52.220;20.978;2024-03-06T02:58:15;6.90;99.90
17571;DHT22;8903;52.220;20.978;2024-03-06T03:00:42;6.90;99.90
17571;DHT22;8903;52.220;20.978;2024-03-06T03:03:08;6.90;99.90
17571;DHT22;8903;52.220;20.978;2024-03-06T03:05:36;6.90;99.90
17571;DHT22;8903;52.220;20.978;2024-03-06T03:08:02;6.90;99.90
17571;DHT22;8903;52.220;20.978;2024-03-06T03:10:29;6.90;99.90
17571;DHT22;8903;52.220;20.978;2024-03-06T03:12:55;6.90;99.90
17571;DHT22;8903;52.220;20.978;2024-03-06T03:15:21;7.00;99.90
17571;DHT22;8903;52.220;20.978;2024-03-06T03:17:46;6.90;99.90
17571;DHT22;8903;52.220;20.978;2024-03-06T03:20:13;6.90;99.90
17571;DHT22;8903;52.220;20.978;2024-03-06T03:22:42;6.90;99.90
17571;DHT22;8903;52.220;20.978;2024-03-06T03:25:09;6.80;99.90
17571;DHT22;8903;52.220;20.978;2024-03-06T03:27:39;6.90;99.90
17571;DHT22;8903;52.220;20.978;2024-03-06T03:30:09;6.90;99.90
17571;DHT22;8903;52.220;20.978;2024-03-06T03:32:35;6.80;99.90
17571;DHT22;8903;52.220;20.978;2024-03-06T03:35:05;6.80;99.90
17571;DHT22;8903;52.220;20.978;2024-03-06T03:37:31;6.80;99.90
17571;DHT22;8903;52.220;20.978;2024-03-06T03:39:57;6.80;99.90
17571;DHT22;8903;52.220;20.978;2024-03-06T03:42:23;6.80;99.90
17571;DHT22;8903;52.220;20.978;2024-03-06T03:44:49;6.80;99.90
17571;DHT22;8903;52.220;20.978;2024-03-06T03:47:14;6.80;99.90
17571;DHT22;8903;52.220;20.978;2024-03-06T03:49:40;6.80;99.90
17571;DHT22;8903;52.220;20.978;2024-03-06T03:52:06;6.90;99.90
17571;DHT22;8903;52.220;20.978;2024-03-06T03:54:32;6.90;99.90
17571;DHT22;8903;52.220;20.978;2024-03-06T03:56:58;6.80;99.90
17571;DHT22;8903;52.220;20.978;2024-03-06T03:59:25;6.80;99.90
17571;DHT22;8903;52.220;20.978;2024-03-06T04:01:51;6.80;99.90
17571;DHT22;8903;52.220;20.978;2024-03-06T04:04:17;6.90;99.90
17571;DHT22;8903;52.220;20.978;2024-03-06T04:06:43;6.80;99.90
17571;DHT22;8903;52.220;20.978;2024-03-06T04:09:09;6.80;99.90
17571;DHT22;8903;52.220;20.978;2024-03-06T04:11:39;6.70;99.90
17571;DHT22;8903;52.220;20.978;2024-03-06T04:14:05;6.70;99.90
17571;DHT22;8903;52.220;20.978;2024-03-06T04:16:35;6.70;99.90
17571;DHT22;8903;52.220;20.978;2024-03-06T04:19:01;6.70;99.90
17571;DHT22;8903;52.220;20.978;2024-03-06T04:21:27;6.70;99.90
17571;DHT22;8903;52.220;20.978;2024-03-06T04:23:53;6.70;99.90
17571;DHT22;8903;52.220;20.978;2024-03-06T04:26:19;6.70;99.90
17571;DHT22;8903;52.220;20.978;2024-03-06T04:28:45;6.70;99.90
17571;DHT22;8903;52.220;20.978;2024-03-06T04:31:11;6.70;99.90
17571;DHT22;8903;52.220;20.978;2024-03-06T04:33:37;6.70;99.90
17571;DHT22;8903;52.220;20.978;2024-03-06T04:36:04;6.70;99.90
17571;DHT22;8903;52.220;20.978;2024-03-06T04:38:32;6.60;99.90
17571;DHT22;8903;52.220;20.978;2024-03-06T04:40:58;6.60;99.90
17571;DHT22;8903;52.220;20.978;2024-03-06T04:43:24;6.60;99.90
17571;DHT22;8903;52.220;20.978;2024-03-06T04:45:50;6.60;99.90
17571;DHT22;8903;52.220;20.978;2024-03-06T04:48:15;6.60;99.90
17571;DHT22;8903;52.220;20.978;2024-03-06T04:50:41;6.60;99.90
17571;DHT22;8903;52.220;20.978;2024-03-06T04:53:07;6.60;99.90
17571;DHT22;8903;52.220;20.978;2024-03-06T04:55:33;6.60;99.90
17571;DHT22;8903;52.220;20.978;2024-03-06T04:57:59;6.60;99.90
17571;DHT22;8903;52.220;20.978;2024-03-06T05:00:25;6.60;99.90
17571;DHT22;8903;52.220;20.978;2024-03-06T05:02:50;6.60;99.90
17571;DHT22;8903;52.220;20.978;2024-03-06T05:05:16;6.60;99.90
17571;DHT22;8903;52.220;20.978;2024-03-06T05:07:42;6.50;99.90
17571;DHT22;8903;52.220;20.978;2024-03-06T05:10:07;6.50;99.90
17571;DHT22;8903;52.220;20.978;2024-03-06T05:12:34;6.60;99.90
17571;DHT22;8903;52.220;20.978;2024-03-06T05:15:00;6.60;99.90
17571;DHT22;8903;52.220;20.978;2024-03-06T05:17:26;6.60;99.90
17571;DHT22;8903;52.220;20.978;2024-03-06T05:19:52;6.50;99.90
17571;DHT22;8903;52.220;20.978;2024-03-06T05:22:18;6.50;99.90
17571;DHT22;8903;52.220;20.978;2024-03-06T05:24:44;6.50;99.90
17571;DHT22;8903;52.220;20.978;2024-03-06T05:27:10;6.50;99.90
17571;DHT22;8903;52.220;20.978;2024-03-06T05:29:39;6.50;99.90
17571;DHT22;8903;52.220;20.978;2024-03-06T05:32:05;6.50;99.90
17571;DHT22;8903;52.220;20.978;2024-03-06T05:34:33;6.50;99.90
17571;DHT22;8903;52.220;20.978;2024-03-06T05:36:59;6.60;99.90
17571;DHT22;8903;52.220;20.978;2024-03-06T05:39:27;6.50;99.90
17571;DHT22;8903;52.220;20.978;2024-03-06T05:41:55;6.40;99.90
17571;DHT22;8903;52.220;20.978;2024-03-06T05:44:20;6.40;99.90
17571;DHT22;8903;52.220;20.978;2024-03-06T05:46:47;6.40;99.90
17571;DHT22;8903;52.220;20.978;2024-03-06T05:49:13;6.40;99.90
17571;DHT22;8903;52.220;20.978;2024-03-06T05:51:39;6.40;99.90
17571;DHT22;8903;52.220;20.978;2024-03-06T05:54:05;6.40;99.90
17571;DHT22;8903;52.220;20.978;2024-03-06T05:56:40;6.40;99.90
17571;DHT22;8903;52.220;20.978;2024-03-06T05:59:07;6.40;99.90
17571;DHT22;8903;52.220;20.978;2024-03-06T06:01:34;6.50;99.90
17571;DHT22;8903;52.220;20.978;2024-03-06T06:04:01;6.50;99.90
17571;DHT22;8903;52.220;20.978;2024-03-06T06:06:27;6.40;99.90
17571;DHT22;8903;52.220;20.978;2024-03-06T06:08:53;6.50;99.90
17571;DHT22;8903;52.220;20.978;2024-03-06T06:11:19;6.50;99.90
17571;DHT22;8903;52.220;20.978;2024-03-06T06:13:44;6.40;99.90
17571;DHT22;8903;52.220;20.978;2024-03-06T06:16:10;6.50;99.90
17571;DHT22;8903;52.220;20.978;2024-03-06T06:18:38;6.50;99.90
17571;DHT22;8903;52.220;20.978;2024-03-06T06:21:06;6.50;99.90
17571;DHT22;8903;52.220;20.978;2024-03-06T06:23:33;6.50;99.90
17571;DHT22;8903;52.220;20.978;2024-03-06T06:25:59;6.50;99.90
17571;DHT22;8903;52.220;20.978;2024-03-06T06:28:26;6.50;99.90
17571;DHT22;8903;52.220;20.978;2024-03-06T06:30:54;6.50;99.90
17571;DHT22;8903;52.220;20.978;2024-03-06T06:33:20;6.50;99.90
17571;DHT22;8903;52.220;20.978;2024-03-06T06:35:47;6.40;99.90
17571;DHT22;8903;52.220;20.978;2024-03-06T06:38:13;6.40;99.90
17571;DHT22;8903;52.220;20.978;2024-03-06T06:40:38;6.40;99.90
17571;DHT22;8903;52.220;20.978;2024-03-06T06:43:06;6.40;99.90
17571;DHT22;8903;52.220;20.978;2024-03-06T06:45:32;6.30;99.90
17571;DHT22;8903;52.220;20.978;2024-03-06T06:47:58;6.30;99.90
17571;DHT22;8903;52.220;20.978;2024-03-06T06:50:23;6.30;99.90
17571;DHT22;8903;52.220;20.978;2024-03-06T06:52:51;6.30;99.90
17571;DHT22;8903;52.220;20.978;2024-03-06T06:55:17;6.30;99.90
17571;DHT22;8903;52.220;20.978;2024-03-06T06:57:43;6.30;99.90
17571;DHT22;8903;52.220;20.978;2024-03-06T07:00:09;6.30;99.90
17571;DHT22;8903;52.220;20.978;2024-03-06T07:02:39;6.40;99.90
17571;DHT22;8903;52.220;20.978;2024-03-06T07:05:07;6.40;99.90
17571;DHT22;8903;52.220;20.978;2024-03-06T07:07:34;6.40;99.90
17571;DHT22;8903;52.220;20.978;2024-03-06T07:10:01;6.40;99.90
17571;DHT22;8903;52.220;20.978;2024-03-06T07:12:26;6.30;99.90
17571;DHT22;8903;52.220;20.978;2024-03-06T07:14:52;6.20;99.90
17571;DHT22;8903;52.220;20.978;2024-03-06T07:17:18;6.30;99.90
17571;DHT22;8903;52.220;20.978;2024-03-06T07:19:44;6.30;99.90
17571;DHT22;8903;52.220;20.978;2024-03-06T07:22:10;6.40;99.90
17571;DHT22;8903;52.220;20.978;2024-03-06T07:24:35;6.30;99.90
17571;DHT22;8903;52.220;20.978;2024-03-06T07:27:02;6.30;99.90
17571;DHT22;8903;52.220;20.978;2024-03-06T07:29:28;6.30;99.90
17571;DHT22;8903;52.220;20.978;2024-03-06T07:31:56;6.40;99.90
17571;DHT22;8903;52.220;20.978;2024-03-06T07:34:22;6.40;99.90
17571;DHT22;8903;52.220;20.978;2024-03-06T07:36:48;6.40;99.90
17571;DHT22;8903;52.220;20.978;2024-03-06T07:39:19;6.40;99.90
17571;DHT22;8903;52.220;20.978;2024-03-06T07:41:45;6.50;99.90
17571;DHT22;8903;52.220;20.978;2024-03-06T07:44:10;6.50;99.90
17571;DHT22;8903;52.220;20.978;2024-03-06T07:46:36;6.40;99.90
17571;DHT22;8903;52.220;20.978;2024-03-06T07:49:02;6.40;99.90
17571;DHT22;8903;52.220;20.978;2024-03-06T07:51:33;6.50;99.90
17571;DHT22;8903;52.220;20.978;2024-03-06T07:54:00;6.50;99.90
17571;DHT22;8903;52.220;20.978;2024-03-06T07:56:26;6.40;99.90
17571;DHT22;8903;52.220;20.978;2024-03-06T07:58:52;6.50;99.90
17571;DHT22;8903;52.220;20.978;2024-03-06T08:01:22;6.50;99.90
17571;DHT22;8903;52.220;20.978;2024-03-06T08:03:48;6.40;99.90
17571;DHT22;8903;52.220;20.978;2024-03-06T08:06:13;6.40;99.90
17571;DHT22;8903;52.220;20.978;2024-03-06T08:08:43;6.40;99.90
17571;DHT22;8903;52.220;20.978;2024-03-06T08:11:13;6.50;99.90
17571;DHT22;8903;52.220;20.978;2024-03-06T08:13:39;6.50;99.90
17571;DHT22;8903;52.220;20.978;2024-03-06T08:16:05;6.50;99.90
17571;DHT22;8903;52.220;20.978;2024-03-06T08:18:34;6.40;99.90
17571;DHT22;8903;52.220;20.978;2024-03-06T08:21:01;6.40;99.90
17571;DHT22;8903;52.220;20.978;2024-03-06T08:23:27;6.40;99.90
17571;DHT22;8903;52.220;20.978;2024-03-06T08:25:52;6.40;99.90
17571;DHT22;8903;52.220;20.978;2024-03-06T08:28:18;6.40;99.90
17571;DHT22;8903;52.220;20.978;2024-03-06T08:30:44;6.20;99.90
17571;DHT22;8903;52.220;20.978;2024-03-06T08:33:11;6.30;99.90
17571;DHT22;8903;52.220;20.978;2024-03-06T08:35:37;6.30;99.90
17571;DHT22;8903;52.220;20.978;2024-03-06T08:38:03;6.40;99.90
17571;DHT22;8903;52.220;20.978;2024-03-06T08:40:29;6.40;99.90
17571;DHT22;8903;52.220;20.978;2024-03-06T08:42:55;6.40;99.90
17571;DHT22;8903;52.220;20.978;2024-03-06T08:45:21;6.30;99.90
17571;DHT22;8903;52.220;20.978;2024-03-06T08:47:49;6.40;99.90
17571;DHT22;8903;52.220;20.978;2024-03-06T08:50:15;6.40;99.90
17571;DHT22;8903;52.220;20.978;2024-03-06T08:52:41;6.30;99.90
17571;DHT22;8903;52.220;20.978;2024-03-06T08:55:08;6.40;99.90
17571;DHT22;8903;52.220;20.978;2024-03-06T08:57:34;6.40;99.90
17571;DHT22;8903;52.220;20.978;2024-03-06T09:00:00;6.40;99.90
17571;DHT22;8903;52.220;20.978;2024-03-06T09:02:27;6.40;99.90
17571;DHT22;8903;52.220;20.978;2024-03-06T09:04:53;6.40;99.90
17571;DHT22;8903;52.220;20.978;2024-03-06T09:07:20;6.40;99.90
17571;DHT22;8903;52.220;20.978;2024-03-06T09:09:49;6.50;99.90
17571;DHT22;8903;52.220;20.978;2024-03-06T09:12:17;6.50;99.90
17571;DHT22;8903;52.220;20.978;2024-03-06T09:14:43;6.50;99.90
17571;DHT22;8903;52.220;20.978;2024-03-06T09:17:10;6.40;99.90
17571;DHT22;8903;52.220;20.978;2024-03-06T09:19:38;6.40;99.90
17571;DHT22;8903;52.220;20.978;2024-03-06T09:22:04;6.40;99.90
17571;DHT22;8903;52.220;20.978;2024-03-06T09:24:30;6.40;99.90
17571;DHT22;8903;52.220;20.978;2024-03-06T09:26:56;6.40;99.90
17571;DHT22;8903;52.220;20.978;2024-03-06T09:29:21;6.30;99.90
17571;DHT22;8903;52.220;20.978;2024-03-06T09:31:47;6.30;99.90
17571;DHT22;8903;52.220;20.978;2024-03-06T09:34:14;6.40;99.90
17571;DHT22;8903;52.220;20.978;2024-03-06T09:36:41;6.40;99.90
17571;DHT22;8903;52.220;20.978;2024-03-06T09:39:14;6.40;99.90
17571;DHT22;8903;52.220;20.978;2024-03-06T09:41:44;6.50;99.90
17571;DHT22;8903;52.220;20.978;2024-03-06T09:44:10;6.40;99.90
17571;DHT22;8903;52.220;20.978;2024-03-06T09:46:36;6.40;99.90
17571;DHT22;8903;52.220;20.978;2024-03-06T09:49:02;6.40;99.90
17571;DHT22;8903;52.220;20.978;2024-03-06T09:51:28;6.50;99.90
17571;DHT22;8903;52.220;20.978;2024-03-06T09:53:55;6.50;99.90
17571;DHT22;8903;52.220;20.978;2024-03-06T09:56:21;6.50;99.90
17571;DHT22;8903;52.220;20.978;2024-03-06T09:58:46;6.50;99.90
17571;DHT22;8903;52.220;20.978;2024-03-06T10:01:16;6.50;99.90
17571;DHT22;8903;52.220;20.978;2024-03-06T10:03:42;6.60;99.90
17571;DHT22;8903;52.220;20.978;2024-03-06T10:06:09;6.60;99.90
17571;DHT22;8903;52.220;20.978;2024-03-06T10:08:35;6.60;99.90
17571;DHT22;8903;52.220;20.978;2024-03-06T10:11:03;6.60;99.90
17571;DHT22;8903;52.220;20.978;2024-03-06T10:13:29;6.70;99.90
17571;DHT22;8903;52.220;20.978;2024-03-06T10:16:01;6.70;99.90
17571;DHT22;8903;52.220;20.978;2024-03-06T10:18:29;6.70;99.90
17571;DHT22;8903;52.220;20.978;2024-03-06T10:20:55;6.70;99.90
17571;DHT22;8903;52.220;20.978;2024-03-06T10:23:21;6.80;99.90
17571;DHT22;8903;52.220;20.978;2024-03-06T10:25:48;6.70;99.90
17571;DHT22;8903;52.220;20.978;2024-03-06T10:28:20;6.70;99.90
17571;DHT22;8903;52.220;20.978;2024-03-06T10:30:49;6.70;99.90
17571;DHT22;8903;52.220;20.978;2024-03-06T10:33:16;6.70;99.90
17571;DHT22;8903;52.220;20.978;2024-03-06T10:35:46;6.80;99.90
17571;DHT22;8903;52.220;20.978;2024-03-06T10:38:12;6.80;99.90
17571;DHT22;8903;52.220;20.978;2024-03-06T10:40:40;6.80;99.90
17571;DHT22;8903;52.220;20.978;2024-03-06T10:43:07;6.80;99.90
17571;DHT22;8903;52.220;20.978;2024-03-06T10:48:07;6.90;99.90
17571;DHT22;8903;52.220;20.978;2024-03-06T10:50:33;6.80;99.90
17571;DHT22;8903;52.220;20.978;2024-03-06T10:53:03;6.90;99.90
17571;DHT22;8903;52.220;20.978;2024-03-06T10:55:30;6.90;99.90
17571;DHT22;8903;52.220;20.978;2024-03-06T10:58:00;6.90;99.90
17571;DHT22;8903;52.220;20.978;2024-03-06T11:00:26;6.80;99.90
17571;DHT22;8903;52.220;20.978;2024-03-06T11:02:55;6.80;99.90
17571;DHT22;8903;52.220;20.978;2024-03-06T11:05:21;6.80;99.90
17571;DHT22;8903;52.220;20.978;2024-03-06T11:07:47;6.80;99.90
17571;DHT22;8903;52.220;20.978;2024-03-06T11:10:12;6.80;99.90
17571;DHT22;8903;52.220;20.978;2024-03-06T11:12:42;6.80;99.90
17571;DHT22;8903;52.220;20.978;2024-03-06T11:15:13;6.70;99.90
17571;DHT22;8903;52.220;20.978;2024-03-06T11:17:40;6.70;99.90
17571;DHT22;8903;52.220;20.978;2024-03-06T11:20:16;6.80;99.90
17571;DHT22;8903;52.220;20.978;2024-03-06T11:28:25;6.80;99.90
17571;DHT22;8903;52.220;20.978;2024-03-06T11:36:29;7.00;99.90
17571;DHT22;8903;52.220;20.978;2024-03-06T11:38:59;7.10;99.90
17571;DHT22;8903;52.220;20.978;2024-03-06T11:44:14;7.30;99.90
17571;DHT22;8903;52.220;20.978;2024-03-06T11:46:43;7.40;99.90
17571;DHT22;8903;52.220;20.978;2024-03-06T11:49:20;7.40;99.90
17571;DHT22;8903;52.220;20.978;2024-03-06T11:51:47;7.40;99.90
17571;DHT22;8903;52.220;20.978;2024-03-06T11:54:14;7.50;99.90
17571;DHT22;8903;52.220;20.978;2024-03-06T11:56:44;7.60;99.90
17571;DHT22;8903;52.220;20.978;2024-03-06T11:59:12;7.60;99.90
17571;DHT22;8903;52.220;20.978;2024-03-06T12:01:38;7.60;99.90
17571;DHT22;8903;52.220;20.978;2024-03-06T12:04:04;7.70;99.90
17571;DHT22;8903;52.220;20.978;2024-03-06T12:06:31;7.70;99.90
17571;DHT22;8903;52.220;20.978;2024-03-06T12:08:58;7.80;99.90
17571;DHT22;8903;52.220;20.978;2024-03-06T12:11:24;7.90;99.90
17571;DHT22;8903;52.220;20.978;2024-03-06T12:13:54;7.80;99.90
17571;DHT22;8903;52.220;20.978;2024-03-06T12:16:21;7.80;99.90
17571;DHT22;8903;52.220;20.978;2024-03-06T12:18:53;7.90;99.90
17571;DHT22;8903;52.220;20.978;2024-03-06T12:21:19;8.00;99.90
17571;DHT22;8903;52.220;20.978;2024-03-06T12:23:45;8.00;99.90
17571;DHT22;8903;52.220;20.978;2024-03-06T12:26:11;7.90;99.90
17571;DHT22;8903;52.220;20.978;2024-03-06T12:28:38;8.00;99.90
17571;DHT22;8903;52.220;20.978;2024-03-06T12:31:05;8.00;99.90
17571;DHT22;8903;52.220;20.978;2024-03-06T12:33:31;8.00;99.90
17571;DHT22;8903;52.220;20.978;2024-03-06T12:36:07;8.00;99.90
17571;DHT22;8903;52.220;20.978;2024-03-06T12:38:37;8.00;99.90
17571;DHT22;8903;52.220;20.978;2024-03-06T12:41:03;8.10;99.90
17571;DHT22;8903;52.220;20.978;2024-03-06T12:43:29;8.30;99.90
17571;DHT22;8903;52.220;20.978;2024-03-06T12:45:56;8.60;99.90
17571;DHT22;8903;52.220;20.978;2024-03-06T12:48:23;8.80;99.90
17571;DHT22;8903;52.220;20.978;2024-03-06T12:50:49;8.90;99.90
17571;DHT22;8903;52.220;20.978;2024-03-06T12:53:21;9.00;99.90
17571;DHT22;8903;52.220;20.978;2024-03-06T12:55:47;9.00;99.90
17571;DHT22;8903;52.220;20.978;2024-03-06T12:58:13;9.10;99.90
17571;DHT22;8903;52.220;20.978;2024-03-06T13:00:39;9.00;99.90
17571;DHT22;8903;52.220;20.978;2024-03-06T13:03:06;8.90;99.90
17571;DHT22;8903;52.220;20.978;2024-03-06T13:05:32;9.00;99.90
17571;DHT22;8903;52.220;20.978;2024-03-06T13:07:59;9.00;99.90
17571;DHT22;8903;52.220;20.978;2024-03-06T13:10:28;8.90;99.90
17571;DHT22;8903;52.220;20.978;2024-03-06T13:12:54;8.90;99.90
17571;DHT22;8903;52.220;20.978;2024-03-06T13:15:20;8.50;99.90
17571;DHT22;8903;52.220;20.978;2024-03-06T13:17:46;8.40;99.90
17571;DHT22;8903;52.220;20.978;2024-03-06T13:20:12;8.40;99.90
17571;DHT22;8903;52.220;20.978;2024-03-06T13:22:38;8.30;99.90
17571;DHT22;8903;52.220;20.978;2024-03-06T13:25:04;8.20;99.90
17571;DHT22;8903;52.220;20.978;2024-03-06T13:27:30;8.10;99.90
17571;DHT22;8903;52.220;20.978;2024-03-06T13:29:56;8.00;99.90
17571;DHT22;8903;52.220;20.978;2024-03-06T13:32:22;7.90;99.90
17571;DHT22;8903;52.220;20.978;2024-03-06T13:34:48;7.90;99.90
17571;DHT22;8903;52.220;20.978;2024-03-06T13:37:14;7.90;99.90
17571;DHT22;8903;52.220;20.978;2024-03-06T13:39:40;7.80;99.90
17571;DHT22;8903;52.220;20.978;2024-03-06T13:42:07;7.80;99.90
17571;DHT22;8903;52.220;20.978;2024-03-06T13:44:36;7.80;99.90
17571;DHT22;8903;52.220;20.978;2024-03-06T13:47:02;7.80;99.90
17571;DHT22;8903;52.220;20.978;2024-03-06T13:49:41;7.90;99.90
17571;DHT22;8903;52.220;20.978;2024-03-06T13:52:08;7.90;99.90
17571;DHT22;8903;52.220;20.978;2024-03-06T13:54:39;7.80;99.90
17571;DHT22;8903;52.220;20.978;2024-03-06T13:57:09;7.80;99.90
17571;DHT22;8903;52.220;20.978;2024-03-06T13:59:35;7.80;99.90
17571;DHT22;8903;52.220;20.978;2024-03-06T14:02:01;7.70;99.90
17571;DHT22;8903;52.220;20.978;2024-03-06T14:04:28;7.70;99.90
17571;DHT22;8903;52.220;20.978;2024-03-06T14:06:55;7.70;99.90
17571;DHT22;8903;52.220;20.978;2024-03-06T14:09:22;7.60;99.90
17571;DHT22;8903;52.220;20.978;2024-03-06T14:11:51;7.70;99.90
17571;DHT22;8903;52.220;20.978;2024-03-06T14:14:18;7.70;99.90
17571;DHT22;8903;52.220;20.978;2024-03-06T14:16:44;7.60;99.90
17571;DHT22;8903;52.220;20.978;2024-03-06T14:19:10;7.60;99.90
17571;DHT22;8903;52.220;20.978;2024-03-06T14:21:37;7.40;99.90
17571;DHT22;8903;52.220;20.978;2024-03-06T14:24:04;7.50;99.90
17571;DHT22;8903;52.220;20.978;2024-03-06T14:26:31;7.40;99.90
17571;DHT22;8903;52.220;20.978;2024-03-06T14:28:58;7.30;99.90
17571;DHT22;8903;52.220;20.978;2024-03-06T14:31:24;7.30;99.90
17571;DHT22;8903;52.220;20.978;2024-03-06T14:33:50;7.30;99.90
17571;DHT22;8903;52.220;20.978;2024-03-06T14:36:17;7.10;99.90
17571;DHT22;8903;52.220;20.978;2024-03-06T14:38:43;7.10;99.90
17571;DHT22;8903;52.220;20.978;2024-03-06T14:41:10;7.10;99.90
17571;DHT22;8903;52.220;20.978;2024-03-06T14:43:36;7.10;99.90
17571;DHT22;8903;52.220;20.978;2024-03-06T14:46:05;7.10;99.90
17571;DHT22;8903;52.220;20.978;2024-03-06T14:48:32;7.00;99.90
17571;DHT22;8903;52.220;20.978;2024-03-06T14:51:00;7.00;99.90
17571;DHT22;8903;52.220;20.978;2024-03-06T14:53:26;6.90;99.90
17571;DHT22;8903;52.220;20.978;2024-03-06T14:55:52;6.80;99.90
17571;DHT22;8903;52.220;20.978;2024-03-06T14:58:17;6.80;99.90
17571;DHT22;8903;52.220;20.978;2024-03-06T15:00:43;6.80;99.90
17571;DHT22;8903;52.220;20.978;2024-03-06T15:03:09;6.70;99.90
17571;DHT22;8903;52.220;20.978;2024-03-06T15:05:36;6.70;99.90
17571;DHT22;8903;52.220;20.978;2024-03-06T15:08:02;6.60;99.90
17571;DHT22;8903;52.220;20.978;2024-03-06T15:10:30;6.60;99.90
17571;DHT22;8903;52.220;20.978;2024-03-06T15:12:58;6.60;99.90
17571;DHT22;8903;52.220;20.978;2024-03-06T15:15:24;6.60;99.90
17571;DHT22;8903;52.220;20.978;2024-03-06T15:17:50;6.70;99.90
17571;DHT22;8903;52.220;20.978;2024-03-06T15:20:16;6.60;99.90
17571;DHT22;8903;52.220;20.978;2024-03-06T15:22:43;6.60;99.90
17571;DHT22;8903;52.220;20.978;2024-03-06T15:25:13;6.60;99.90
17571;DHT22;8903;52.220;20.978;2024-03-06T15:27:39;6.60;99.90
17571;DHT22;8903;52.220;20.978;2024-03-06T15:30:07;6.60;99.90
17571;DHT22;8903;52.220;20.978;2024-03-06T15:32:33;6.60;99.90
17571;DHT22;8903;52.220;20.978;2024-03-06T15:35:00;6.60;99.90
17571;DHT22;8903;52.220;20.978;2024-03-06T15:37:25;6.60;99.90
17571;DHT22;8903;52.220;20.978;2024-03-06T15:39:55;6.60;99.90
17571;DHT22;8903;52.220;20.978;2024-03-06T15:42:22;6.60;99.90
17571;DHT22;8903;52.220;20.978;2024-03-06T15:44:49;6.60;99.90
17571;DHT22;8903;52.220;20.978;2024-03-06T15:47:17;6.70;99.90
17571;DHT22;8903;52.220;20.978;2024-03-06T15:49:43;6.70;99.90
17571;DHT22;8903;52.220;20.978;2024-03-06T15:52:12;6.70;99.90
17571;DHT22;8903;52.220;20.978;2024-03-06T15:54:39;6.70;99.90
17571;DHT22;8903;52.220;20.978;2024-03-06T15:57:06;6.60;99.90
17571;DHT22;8903;52.220;20.978;2024-03-06T15:59:35;6.50;99.90